Monday, November 20, 2017, 7:39 AM GMT
Back to Local

CYTZ, Toronto Island Airport Automated Reporting Station

Location: , , Canada Lat: 43.633
Local Time: 7:39 AM GMT ( 7:39 GMT) Lon: -79.4
Time Zone: GMT Elev: 252 ft

Show me the last for .
Show Coded

Time T Td Feel RH Dir Speed Gust Alt SLP Vis Weather Sky Remarks
2017-11-20 07:00 34 25 22 69 260° 20 - 29.87 29.88 9 OVC065 None
2017-11-20 06:00 34 23 22 64 270° 16 22 29.86 29.87 9 FEW035 OVC065 None
2017-11-20 05:55 34 23 23 64 260° 18 - 29.86 29.87 9 OVC065 None
2017-11-20 05:00 32 23 26 68 270° 7 - 29.85 29.87 9 FEW030 BKN036 OVC070 None
2017-11-20 04:00 30 23 23 74 280° 8 - 29.84 29.85 9 BKN032 OVC042 None
2017-11-20 03:00 30 23 22 74 280° 9 - 29.84 29.85 9 OVC042 None
2017-11-20 02:43 30 21 18 68 280° 12 20 29.84 29.85 9 OVC040 None
2017-11-20 02:00 32 19 21 59 280° 12 17 29.82 29.84 9 -SN BKN044 OVC070 None
2017-11-20 01:56 32 19 21 59 280° 10 17 29.82 29.84 9 -SN SCT044 OVC070 None
2017-11-20 01:00 30 19 17 63 310° 12 22 29.81 29.82 9 BKN049 None
2017-11-20 00:00 32 19 19 59 300° 16 24 29.79 29.80 9 CLR None
2017-11-19 23:00 34 19 21 55 290° 20 28 29.76 29.77 9 FEW075 BKN130 None
2017-11-19 22:00 36 21 22 55 300° 21 32 29.73 29.74 9 FEW037 BKN075 None
2017-11-19 21:00 37 23 25 55 300° 22 31 29.70 29.71 9 FEW036 OVC080 None
2017-11-19 20:28 37 25 23 60 280° 29 39 29.68 29.69 9 BKN034 BKN046 BKN055 OVC084 None
2017-11-19 20:15 37 27 25 64 290° 24 32 29.67 29.68 9 -RA SCT036 BKN046 BKN055 None
2017-11-19 20:08 37 28 25 69 290° 21 29 29.66 29.67 9 SCT036 BKN050 None
2017-11-19 20:00 37 27 25 64 290° 23 31 29.66 29.67 9 -RA SCT036 OVC046 None
2017-11-19 19:51 37 27 25 64 300° 20 28 29.66 29.67 7 -RA BKN036 OVC047 None
2017-11-19 19:00 39 27 30 60 300° 17 - 29.65 29.66 9 SCT040 OVC085 None
2017-11-19 18:00 39 27 28 60 290° 14 25 29.65 29.66 9 BKN038 OVC044 None
2017-11-19 17:00 41 27 29 56 310° 17 33 29.63 29.64 9 BKN038 BKN048 None
2017-11-19 16:00 41 27 30 56 300° 21 31 29.62 29.63 9 BKN042 None
2017-11-19 15:00 39 27 28 60 320° 15 25 29.60 29.61 9 BKN050 None
2017-11-19 14:00 37 30 26 74 290° 16 24 29.57 29.58 9 SCT026 BKN050 None
2017-11-19 13:00 37 32 28 80 290° 12 17 29.54 29.55 9 FEW020 BKN028 BKN035 OVC044 None
2017-11-19 12:45 37 32 28 80 300° 12 17 29.54 29.54 9 SCT021 BKN028 OVC038 None
2017-11-19 12:35 36 32 29 86 290° 9 - 29.53 29.54 9 BKN019 OVC028 None
2017-11-19 12:18 36 32 30 86 310° 7 - 29.52 29.53 9 -RA FEW013 OVC019 None
2017-11-19 12:13 36 32 29 86 290° 9 - 29.52 29.53 9 OVC019 None
2017-11-19 12:00 36 32 25 86 310° 9 21 29.51 29.52 9 -RA SCT017 BKN022 BKN027 OVC033 None
2017-11-19 11:51 36 32 24 86 300° 12 23 29.50 29.51 9 -RA BKN019 BKN025 OVC031 None
2017-11-19 11:32 36 30 23 80 300° 17 26 29.49 29.50 9 -RA SCT021 BKN030 OVC038 Pressure rising rapidly
2017-11-19 11:00 36 30 24 80 310° 15 24 29.46 29.47 9 FEW030 BKN038 None
2017-11-19 10:27 37 30 25 74 310° 18 29 29.43 29.44 9 FEW016 SCT021 BKN028 OVC032 Pressure rising rapidly
2017-11-19 10:16 37 32 25 80 310° 17 31 29.42 29.43 9 SCT016 BKN021 OVC026 None
2017-11-19 10:00 36 32 24 86 310° 12 24 29.40 29.41 9 -RA BKN016 OVC022 Pressure rising rapidly
2017-11-19 09:49 36 32 23 86 310° 20 30 29.39 29.40 9 -RA BKN019 OVC043 Pressure rising rapidly
2017-11-19 09:28 36 32 23 86 310° 20 28 29.37 29.38 9 BKN019 OVC043 None
2017-11-19 09:13 36 32 23 86 300° 16 30 29.36 29.37 9 SCT021 OVC040 None
2017-11-19 09:00 36 30 22 80 310° 16 35 29.35 29.36 9 BKN021 OVC040 Pressure rising rapidly
2017-11-19 08:56 36 30 22 80 310° 21 32 29.34 29.36 9 FEW017 BKN021 Pressure rising rapidly
2017-11-19 08:42 36 32 23 86 320° 14 30 29.33 29.34 9 -RA FEW018 BKN023 OVC048 Pressure rising rapidly
2017-11-19 08:41 36 32 23 86 320° 14 30 29.32 29.33 9 -RA SCT018 BKN025 OVC048 Pressure rising rapidly
2017-11-19 08:36 36 32 23 86 310° 18 30 29.32 29.33 9 -RA SCT016 BKN022 BKN048 OVC075 Pressure rising rapidly
2017-11-19 08:10 36 32 22 86 320° 22 31 29.28 29.28 9 -RA SCT018 OVC050 Pressure rising rapidly
2017-11-19 08:00 36 32 23 86 320° 17 28 29.26 29.27 9 -RA BKN018 OVC050 Pressure rising rapidly
2017-11-19 07:50 36 32 23 86 310° 14 29 29.26 29.27 9 SCT018 BKN046 Pressure rising rapidly

Support USWX by starting your Amazon purchase here.